Аэропорт: Ровно. Ровно

ICAO: UKLR

METAR:
2021-07-28 13:30:00
UKLR 281330Z VRB01MPS CAVOK 31/14 Q1013 R29/090070 NOSIG
METAR:
2021-07-28 11:02:00
TAF UKLR 281102Z 2812/2821 25003MPS 9999 BKN020 SCT023CB TX31/2813Z TN19/2821Z TEMPO 2812/2821 VRB10G18MPS 2100 -TSRAGR SQ BKN007 BKN013CB